createdAt,value
2018-12-03T00:00:25.062Z,1.10
2018-12-03T00:02:58.632Z,1.20
2018-12-03T00:05:27.217Z,1.20
2018-12-03T00:07:55.780Z,1.00
2018-12-03T00:10:24.663Z,1.10
2018-12-03T00:12:53.201Z,1.00
2018-12-03T00:15:21.692Z,1.03
2018-12-03T00:17:50.260Z,0.80
2018-12-03T00:20:18.756Z,1.30
2018-12-03T00:22:47.311Z,1.03
2018-12-03T00:25:15.912Z,0.90
2018-12-03T00:27:51.239Z,1.07
2018-12-03T00:30:20.128Z,0.90
2018-12-03T00:32:48.674Z,1.20
2018-12-03T00:35:17.220Z,1.20
2018-12-03T00:37:45.768Z,0.87
2018-12-03T00:40:14.639Z,1.30
2018-12-03T00:42:43.180Z,1.33
2018-12-03T00:45:11.765Z,1.10
2018-12-03T00:47:40.618Z,1.40
2018-12-03T00:50:09.192Z,1.50
2018-12-03T00:52:37.739Z,1.27
2018-12-03T00:55:07.759Z,1.30
2018-12-03T00:57:36.278Z,1.00
2018-12-03T01:00:07.433Z,1.70
2018-12-03T01:02:35.944Z,1.20
2018-12-03T01:05:05.160Z,1.20
2018-12-03T01:07:33.721Z,1.40
2018-12-03T01:10:02.248Z,1.20
2018-12-03T01:12:30.758Z,1.20
2018-12-03T01:14:59.318Z,1.00
2018-12-03T01:17:27.807Z,1.13
2018-12-03T01:19:56.335Z,1.00
2018-12-03T01:22:24.842Z,1.17
2018-12-03T01:24:53.510Z,1.03
2018-12-03T01:27:21.995Z,1.17
2018-12-03T01:29:50.639Z,1.30
2018-12-03T01:32:19.104Z,1.10
2018-12-03T01:34:47.720Z,1.03
2018-12-03T01:37:16.299Z,1.30
2018-12-03T01:39:44.987Z,1.10
2018-12-03T01:42:13.473Z,1.10
2018-12-03T01:44:41.997Z,1.03
2018-12-03T01:47:10.581Z,1.10
2018-12-03T01:49:39.120Z,1.00
2018-12-03T01:52:07.656Z,1.10
2018-12-03T01:54:36.166Z,1.20
2018-12-03T01:57:04.740Z,1.20
2018-12-03T01:59:33.210Z,1.17
2018-12-03T02:02:01.766Z,1.33
2018-12-03T02:04:30.277Z,1.20
2018-12-03T02:06:58.821Z,1.20
2018-12-03T02:09:27.399Z,1.30
2018-12-03T02:11:55.902Z,1.20
2018-12-03T02:14:24.404Z,1.20
2018-12-03T02:16:53.215Z,1.43
2018-12-03T02:19:21.836Z,1.53
2018-12-03T02:21:50.387Z,1.20
2018-12-03T02:24:18.875Z,1.20
2018-12-03T02:26:47.465Z,1.97
2018-12-03T02:29:16.119Z,1.70
2018-12-03T02:31:45.058Z,1.73
2018-12-03T02:34:13.721Z,2.00
2018-12-03T02:36:42.442Z,1.50
2018-12-03T02:39:11.026Z,1.40
2018-12-03T02:41:39.526Z,1.27
2018-12-03T02:44:08.067Z,1.30
2018-12-03T02:46:36.539Z,1.40
2018-12-03T02:49:06.399Z,1.50
2018-12-03T02:51:34.900Z,1.60
2018-12-03T02:54:03.474Z,1.17
2018-12-03T02:56:32.361Z,1.40
2018-12-03T02:59:00.961Z,1.10
2018-12-03T03:01:29.528Z,1.53
2018-12-03T03:03:58.146Z,1.50
2018-12-03T03:06:26.651Z,1.90
2018-12-03T03:08:55.182Z,1.40
2018-12-03T03:11:23.919Z,1.50
2018-12-03T03:13:52.492Z,1.20
2018-12-03T03:16:20.995Z,1.30
2018-12-03T03:18:49.884Z,1.20
2018-12-03T03:21:18.478Z,1.30
2018-12-03T03:23:47.019Z,1.67
2018-12-03T03:26:15.608Z,1.20
2018-12-03T03:28:44.217Z,1.10
2018-12-03T03:31:12.747Z,1.23
2018-12-03T03:33:41.302Z,1.13
2018-12-03T03:36:09.824Z,1.40
2018-12-03T03:38:38.401Z,1.50
2018-12-03T03:41:07.174Z,1.30
2018-12-03T03:43:35.694Z,1.20
2018-12-03T03:46:04.715Z,1.30
2018-12-03T03:48:33.178Z,1.37
2018-12-03T03:51:01.774Z,1.40
2018-12-03T03:53:30.308Z,0.97
2018-12-03T03:55:58.893Z,1.10
2018-12-03T03:58:27.414Z,1.10
2018-12-03T04:00:56.009Z,1.10
2018-12-03T04:03:24.682Z,0.90
2018-12-03T04:05:53.161Z,1.00
2018-12-03T04:08:21.748Z,0.90
2018-12-03T04:10:50.338Z,0.97
2018-12-03T04:13:19.160Z,0.93
2018-12-03T04:15:47.668Z,0.90
2018-12-03T04:18:16.224Z,1.10
2018-12-03T04:20:44.795Z,1.10
2018-12-03T04:23:13.285Z,0.87
2018-12-03T04:25:41.808Z,0.87
2018-12-03T04:28:10.329Z,1.00
2018-12-03T04:30:38.867Z,1.10
2018-12-03T04:33:07.424Z,1.03
2018-12-03T04:35:35.974Z,1.10
2018-12-03T04:38:04.622Z,1.40
2018-12-03T04:40:33.078Z,0.90
2018-12-03T04:43:01.626Z,1.20
2018-12-03T04:45:30.123Z,1.20
2018-12-03T04:47:58.682Z,1.40
2018-12-03T04:50:27.237Z,1.13
2018-12-03T04:52:55.755Z,1.20
2018-12-03T04:55:24.428Z,0.90
2018-12-03T04:57:53.054Z,1.00
2018-12-03T05:00:22.174Z,1.00
2018-12-03T05:02:51.955Z,1.00
2018-12-03T05:05:20.624Z,1.00
2018-12-03T05:07:49.366Z,1.33
2018-12-03T05:10:19.064Z,1.00
2018-12-03T05:12:48.852Z,0.90
2018-12-03T05:15:17.745Z,0.80
2018-12-03T05:17:46.424Z,0.80
2018-12-03T05:20:18.345Z,0.70
2018-12-03T05:22:46.904Z,0.87
2018-12-03T05:25:19.181Z,0.90
2018-12-03T05:27:44.688Z,1.03
2018-12-03T05:30:16.375Z,0.80
2018-12-03T05:32:45.763Z,0.90
2018-12-03T05:35:18.749Z,0.80
2018-12-03T05:37:47.527Z,0.80
2018-12-03T05:40:17.558Z,0.85
2018-12-03T05:42:46.512Z,0.90
2018-12-03T05:45:15.329Z,0.90
2018-12-03T05:47:43.943Z,1.00
2018-12-03T05:50:13.806Z,0.70
2018-12-03T05:52:43.208Z,0.90
2018-12-03T05:55:12.734Z,0.90
2018-12-03T05:57:42.189Z,0.90
2018-12-03T06:00:15.665Z,0.90
2018-12-03T06:02:44.561Z,0.90
2018-12-03T06:05:13.830Z,0.80
2018-12-03T06:07:42.481Z,0.90
2018-12-03T06:10:13.224Z,0.70
2018-12-03T06:12:42.030Z,0.80
2018-12-03T06:15:15.218Z,0.90
2018-12-03T06:17:44.222Z,0.93
2018-12-03T06:20:14.154Z,0.90
2018-12-03T06:22:44.472Z,0.80
2018-12-03T06:25:17.403Z,0.90
2018-12-03T06:27:46.271Z,0.90
2018-12-03T06:30:19.160Z,0.80
2018-12-03T06:32:48.120Z,0.77
2018-12-03T06:35:17.382Z,0.70
2018-12-03T06:37:47.110Z,0.80
2018-12-03T06:40:18.112Z,1.30
2018-12-03T06:42:46.987Z,1.00
2018-12-03T06:45:17.899Z,1.20
2018-12-03T06:48:20.194Z,1.20
2018-12-03T06:50:48.827Z,1.10
2018-12-03T06:53:17.785Z,1.10
2018-12-03T06:55:46.478Z,0.93
2018-12-03T06:58:15.854Z,1.10
2018-12-03T07:00:46.655Z,0.90
2018-12-03T07:03:15.354Z,1.30
2018-12-03T07:05:45.361Z,1.00
2018-12-03T07:08:14.350Z,1.10
2018-12-03T07:10:43.100Z,1.30
2018-12-03T07:13:14.309Z,1.10
2018-12-03T07:15:44.072Z,1.10
2018-12-03T07:18:13.108Z,1.13
2018-12-03T07:20:41.819Z,1.20
2018-12-03T07:23:10.557Z,1.00
2018-12-03T07:25:39.144Z,1.07
2018-12-03T07:28:07.704Z,1.20
2018-12-03T07:30:36.602Z,1.50
2018-12-03T07:33:06.385Z,1.10
2018-12-03T07:35:35.404Z,0.90
2018-12-03T07:38:04.809Z,1.00
2018-12-03T07:40:33.617Z,1.00
2018-12-03T07:43:02.495Z,1.00
2018-12-03T07:45:31.093Z,1.03
2018-12-03T07:47:59.758Z,0.80
2018-12-03T07:50:28.510Z,1.10
2018-12-03T07:52:57.132Z,1.00
2018-12-03T07:55:26.467Z,1.10
2018-12-03T07:58:01.777Z,1.00
2018-12-03T08:00:33.350Z,1.00
2018-12-03T08:03:02.483Z,1.13
2018-12-03T08:05:31.077Z,1.40
2018-12-03T08:07:59.778Z,0.90
2018-12-03T08:10:28.637Z,1.00
2018-12-03T08:12:57.765Z,1.30
2018-12-03T08:15:26.677Z,1.23
2018-12-03T08:17:57.373Z,1.47
2018-12-03T08:21:04.471Z,1.20
2018-12-03T08:23:40.154Z,1.30
2018-12-03T08:26:09.892Z,1.50
2018-12-03T08:28:38.804Z,1.50
2018-12-03T08:31:07.588Z,1.20
2018-12-03T08:33:36.489Z,1.40
2018-12-03T08:36:05.979Z,1.27
2018-12-03T08:38:35.070Z,1.70
2018-12-03T08:41:07.370Z,1.30
2018-12-03T08:43:35.956Z,1.70
2018-12-03T08:46:07.412Z,1.40
2018-12-03T08:48:39.450Z,1.20
2018-12-03T08:51:08.774Z,1.37
2018-12-03T08:53:37.285Z,1.30
2018-12-03T08:56:06.544Z,1.30
2018-12-03T08:58:35.297Z,1.50
2018-12-03T09:01:10.485Z,1.10
2018-12-03T09:03:39.306Z,1.10
2018-12-03T09:06:10.667Z,1.13
2018-12-03T09:08:39.384Z,0.83
2018-12-03T09:11:10.472Z,0.90
2018-12-03T09:13:39.053Z,1.00
2018-12-03T09:16:07.935Z,1.10
2018-12-03T09:18:39.143Z,0.90
2018-12-03T09:21:14.989Z,0.80
2018-12-03T09:23:45.186Z,0.80
2018-12-03T09:26:14.729Z,0.90
2018-12-03T09:28:43.330Z,0.93
2018-12-03T09:31:16.299Z,0.80
2018-12-03T09:33:51.117Z,0.80
2018-12-03T09:36:20.123Z,1.00
2018-12-03T09:41:22.632Z,0.83
2018-12-03T09:43:51.418Z,1.10
2018-12-03T09:46:21.914Z,0.80
2018-12-03T09:48:56.470Z,0.93
2018-12-03T09:51:31.252Z,0.90
2018-12-03T09:54:00.502Z,0.70
2018-12-03T09:56:35.701Z,0.80
2018-12-03T09:59:12.195Z,0.80
2018-12-03T10:01:41.283Z,0.80
2018-12-03T10:06:39.083Z,1.10
2018-12-03T10:09:10.870Z,0.80
2018-12-03T10:11:39.477Z,0.90
2018-12-03T10:14:08.101Z,1.30
2018-12-03T10:16:40.664Z,0.80
2018-12-03T10:19:09.569Z,1.00
2018-12-03T10:21:38.153Z,1.23
2018-12-03T10:24:13.671Z,1.00
2018-12-03T10:26:42.238Z,0.90
2018-12-03T10:29:14.882Z,0.93
2018-12-03T10:31:43.806Z,0.83
2018-12-03T10:34:17.519Z,0.90
2018-12-03T10:36:51.543Z,0.73
2018-12-03T10:39:29.974Z,0.80
2018-12-03T10:42:04.352Z,0.90
2018-12-03T10:44:32.994Z,0.80
2018-12-03T10:47:01.615Z,1.00
2018-12-03T10:49:30.153Z,0.83
2018-12-03T10:51:58.784Z,0.90
2018-12-03T10:54:27.455Z,0.80
2018-12-03T10:56:56.270Z,0.80
2018-12-03T10:59:24.911Z,0.80
2018-12-03T11:01:54.551Z,0.80
2018-12-03T11:04:28.672Z,0.90
2018-12-03T11:06:57.263Z,0.80
2018-12-03T11:09:32.937Z,0.90
2018-12-03T11:11:56.794Z,0.90
2018-12-03T11:14:25.435Z,1.05
2018-12-03T11:16:53.981Z,1.05
2018-12-03T11:19:22.771Z,0.97
2018-12-03T11:21:51.397Z,0.90
2018-12-03T11:24:19.936Z,0.80
2018-12-03T11:26:50.313Z,0.90
2018-12-03T11:29:18.917Z,1.00
2018-12-03T11:31:48.856Z,0.80
2018-12-03T11:34:22.389Z,0.70
2018-12-03T11:36:54.433Z,0.90
2018-12-03T11:39:28.339Z,0.90
2018-12-03T11:42:01.444Z,0.90
2018-12-03T11:44:30.381Z,0.83
2018-12-03T11:46:58.941Z,0.90
2018-12-03T11:49:27.459Z,0.80
2018-12-03T11:51:56.027Z,0.80
2018-12-03T11:54:24.750Z,0.70
2018-12-03T11:56:53.301Z,1.10
2018-12-03T11:59:22.158Z,0.97
2018-12-03T12:01:51.393Z,1.00
2018-12-03T12:04:19.922Z,0.90
2018-12-03T12:06:49.795Z,0.80
2018-12-03T12:09:21.142Z,0.80
2018-12-03T12:11:47.354Z,1.07
2018-12-03T12:14:24.788Z,0.90
2018-12-03T12:16:53.561Z,0.80
2018-12-03T12:19:22.221Z,1.00
2018-12-03T12:21:50.877Z,1.00
2018-12-03T12:24:20.041Z,1.00
2018-12-03T12:26:49.405Z,0.90
2018-12-03T12:29:18.202Z,0.80
2018-12-03T12:31:46.900Z,1.00
2018-12-03T12:34:15.624Z,0.90
2018-12-03T12:36:44.928Z,1.10
2018-12-03T12:39:13.792Z,0.93
2018-12-03T12:41:42.839Z,1.10
2018-12-03T12:44:12.293Z,0.90
2018-12-03T12:46:44.112Z,1.00
2018-12-03T12:49:12.940Z,1.30
2018-12-03T12:51:41.785Z,0.90
2018-12-03T12:54:10.548Z,1.10
2018-12-03T12:56:39.386Z,1.20
2018-12-03T12:59:08.133Z,1.15
2018-12-03T13:01:36.745Z,0.90
2018-12-03T13:04:06.645Z,1.00
2018-12-03T13:06:35.559Z,0.90
2018-12-03T13:09:06.750Z,1.03
2018-12-03T13:11:35.590Z,1.00
2018-12-03T13:14:05.526Z,1.00
2018-12-03T13:16:35.516Z,1.20
2018-12-03T13:19:06.932Z,1.20
2018-12-03T13:21:38.518Z,1.00
2018-12-03T13:24:07.567Z,1.20
2018-12-03T13:26:38.378Z,1.80
2018-12-03T13:29:07.440Z,1.17
2018-12-03T13:31:36.939Z,1.10
2018-12-03T13:34:07.167Z,1.30
2018-12-03T13:36:36.963Z,1.20
2018-12-03T13:39:09.802Z,1.17
2018-12-03T13:41:40.084Z,1.47
2018-12-03T13:44:10.578Z,1.37
2018-12-03T13:46:41.432Z,1.10
2018-12-03T13:49:10.770Z,1.10
2018-12-03T13:51:40.174Z,1.23
2018-12-03T13:54:09.935Z,1.30
2018-12-03T13:56:41.077Z,1.13
2018-12-03T13:59:11.450Z,1.10
2018-12-03T14:01:40.769Z,1.70
2018-12-03T14:04:13.529Z,1.47
2018-12-03T14:06:49.992Z,1.50
2018-12-03T14:10:26.049Z,1.25
2018-12-03T14:13:20.322Z,1.13
2018-12-03T14:16:04.139Z,1.70
2018-12-03T14:18:38.603Z,1.20
2018-12-03T14:21:13.092Z,1.47
2018-12-03T14:23:42.128Z,1.10
2018-12-03T14:26:11.109Z,2.00
2018-12-03T14:28:40.006Z,2.53
2018-12-03T14:31:08.672Z,2.70
2018-12-03T14:33:37.682Z,1.30
2018-12-03T14:36:06.572Z,1.20
2018-12-03T14:38:36.152Z,1.80
2018-12-03T14:41:05.114Z,1.10
2018-12-03T14:43:33.722Z,1.10
2018-12-03T14:46:02.346Z,1.17
2018-12-03T14:48:31.108Z,1.37
2018-12-03T14:50:59.973Z,1.10
2018-12-03T14:53:28.516Z,1.30
2018-12-03T14:55:57.092Z,1.30
2018-12-03T14:58:25.589Z,1.13
2018-12-03T15:00:55.324Z,1.17
2018-12-03T15:03:24.089Z,1.17
2018-12-03T15:05:52.687Z,1.20
2018-12-03T15:10:49.185Z,1.13
2018-12-03T15:13:18.158Z,1.30
2018-12-03T15:15:46.902Z,1.00
2018-12-03T15:18:15.852Z,1.00
2018-12-03T15:20:46.435Z,1.30
2018-12-03T15:23:15.371Z,1.10
2018-12-03T15:25:44.094Z,1.20
2018-12-03T15:28:15.506Z,1.10
2018-12-03T15:30:41.350Z,1.40
2018-12-03T15:33:10.024Z,1.30
2018-12-03T15:35:38.698Z,1.15
2018-12-03T15:38:07.512Z,1.10
2018-12-03T15:40:36.467Z,1.20
2018-12-03T15:43:05.475Z,1.47
2018-12-03T15:48:01.784Z,1.35
2018-12-03T15:50:35.383Z,1.15
2018-12-03T15:53:03.979Z,1.30
2018-12-03T15:55:34.196Z,1.20
2018-12-03T15:58:02.754Z,1.40
2018-12-03T16:00:31.327Z,1.10
2018-12-03T16:03:00.025Z,1.40
2018-12-03T16:05:28.857Z,1.10
2018-12-03T16:07:57.605Z,1.27
2018-12-03T16:15:22.466Z,1.20
2018-12-03T16:17:51.538Z,1.20
2018-12-03T16:20:20.479Z,1.33
2018-12-03T16:22:49.119Z,1.40
2018-12-03T16:25:18.244Z,1.40
2018-12-03T16:27:47.009Z,1.50
2018-12-03T16:30:20.274Z,1.30
2018-12-03T16:32:50.386Z,1.40
2018-12-03T16:35:19.216Z,1.77
2018-12-03T16:37:48.007Z,3.33
2018-12-03T16:40:17.127Z,1.80
2018-12-03T16:42:47.180Z,1.73
2018-12-03T16:45:17.111Z,1.80
2018-12-03T16:47:46.165Z,2.35
2018-12-03T16:50:14.987Z,1.57
2018-12-03T16:52:43.848Z,1.60
2018-12-03T16:55:12.666Z,1.70
2018-12-03T16:57:41.359Z,1.70
2018-12-03T17:00:12.359Z,1.53
2018-12-03T17:02:41.098Z,1.30
2018-12-03T17:05:09.943Z,1.43
2018-12-03T17:07:38.539Z,1.43
2018-12-03T17:10:11.530Z,1.30
2018-12-03T17:12:40.160Z,1.83
2018-12-03T17:15:08.753Z,1.57
2018-12-03T17:17:37.318Z,1.50
2018-12-03T17:20:11.969Z,1.90
2018-12-03T17:22:53.825Z,1.60
2018-12-03T17:25:24.817Z,1.40
2018-12-03T17:27:53.339Z,1.37
2018-12-03T17:30:23.340Z,1.60
2018-12-03T17:32:52.062Z,2.00
2018-12-03T17:35:20.689Z,1.73
2018-12-03T17:37:49.281Z,2.20
2018-12-03T17:40:17.846Z,1.80
2018-12-03T17:42:46.696Z,2.00
2018-12-03T17:45:15.263Z,2.03
2018-12-03T17:47:44.200Z,2.50
2018-12-03T17:50:12.806Z,1.70
2018-12-03T17:52:42.064Z,2.10
2018-12-03T17:55:11.747Z,2.60
2018-12-03T17:57:41.137Z,2.40
2018-12-03T18:00:13.833Z,2.73
2018-12-03T18:02:43.500Z,2.30
2018-12-03T18:05:12.849Z,2.57
2018-12-03T18:07:42.070Z,2.20
2018-12-03T18:10:12.096Z,2.60
2018-12-03T18:12:41.258Z,2.20
2018-12-03T18:15:10.363Z,2.40
2018-12-03T18:17:39.547Z,2.97
2018-12-03T18:20:10.185Z,2.67
2018-12-03T18:22:39.486Z,2.70
2018-12-03T18:25:09.422Z,2.70
2018-12-03T18:27:38.552Z,2.90
2018-12-03T18:30:09.969Z,2.93
2018-12-03T18:32:40.120Z,3.53
2018-12-03T18:35:10.716Z,2.83
2018-12-03T18:37:39.867Z,2.50
2018-12-03T18:40:11.197Z,2.20
2018-12-03T18:42:40.664Z,2.30
2018-12-03T18:45:10.324Z,1.80
2018-12-03T18:47:39.516Z,2.60
2018-12-03T18:50:20.083Z,2.13
2018-12-03T18:52:49.874Z,2.07
2018-12-03T18:55:18.729Z,2.00
2018-12-03T18:57:50.702Z,2.20
2018-12-03T19:00:20.570Z,2.93
2018-12-03T19:02:49.158Z,1.80
2018-12-03T19:05:17.726Z,2.20
2018-12-03T19:07:46.690Z,1.70
2018-12-03T19:10:15.272Z,1.90
2018-12-03T19:12:43.894Z,1.87
2018-12-03T19:15:12.684Z,2.30
2018-12-03T19:17:41.360Z,1.70
2018-12-03T19:20:10.259Z,1.90
2018-12-03T19:22:38.907Z,1.80
2018-12-03T19:25:08.476Z,2.20
2018-12-03T19:27:37.211Z,2.23
2018-12-03T19:30:09.683Z,2.23
2018-12-03T19:32:38.356Z,2.17
2018-12-03T19:35:07.122Z,2.20
2018-12-03T19:37:36.663Z,2.10
2018-12-03T19:40:06.837Z,2.13
2018-12-03T19:42:36.275Z,1.60
2018-12-03T19:45:05.566Z,2.10
2018-12-03T19:47:35.449Z,2.00
2018-12-03T19:50:04.586Z,1.90
2018-12-03T19:52:33.512Z,1.80
2018-12-03T19:55:02.541Z,1.80
2018-12-03T19:57:33.414Z,1.80
2018-12-03T20:00:02.357Z,1.80
2018-12-03T20:02:31.182Z,2.00
2018-12-03T20:05:03.985Z,1.70
2018-12-03T20:07:33.519Z,1.90
2018-12-03T20:10:03.145Z,1.80
2018-12-03T20:12:31.868Z,1.80
2018-12-03T20:15:00.447Z,1.73
2018-12-03T20:17:32.629Z,1.33
2018-12-03T20:20:01.135Z,1.60
2018-12-03T20:22:36.701Z,1.60
2018-12-03T20:25:06.871Z,1.70
2018-12-03T20:27:51.747Z,1.67
2018-12-03T20:30:30.201Z,1.90
2018-12-03T20:33:07.263Z,1.90
2018-12-03T20:36:16.260Z,2.00
2018-12-03T20:39:23.687Z,1.70
2018-12-03T20:41:54.456Z,1.47
2018-12-03T20:44:28.755Z,1.40
2018-12-03T20:47:09.229Z,1.47
2018-12-03T20:49:48.002Z,1.50
2018-12-03T20:52:22.075Z,1.50
2018-12-03T20:54:53.483Z,1.33
2018-12-03T20:57:22.649Z,1.70
2018-12-03T20:59:52.164Z,1.70
2018-12-03T21:02:22.870Z,1.67
2018-12-03T21:04:52.236Z,1.93
2018-12-03T21:07:21.294Z,1.37
2018-12-03T21:09:50.391Z,1.50
2018-12-03T21:12:19.088Z,1.60
2018-12-03T21:14:47.787Z,1.50
2018-12-03T21:17:16.695Z,1.60
2018-12-03T21:19:48.547Z,1.40
2018-12-03T21:22:17.149Z,1.60
2018-12-03T21:24:45.672Z,1.40
2018-12-03T21:27:14.269Z,1.50
2018-12-03T21:29:42.907Z,1.20
2018-12-03T21:32:50.196Z,1.60
2018-12-03T21:35:19.545Z,1.50
2018-12-03T21:37:47.162Z,1.30
2018-12-03T21:40:14.954Z,1.37
2018-12-03T21:42:42.497Z,1.47
2018-12-03T21:45:10.198Z,1.40
2018-12-03T21:47:38.009Z,1.47
2018-12-03T21:50:07.253Z,1.50
2018-12-03T21:52:35.181Z,1.07
2018-12-03T21:55:03.004Z,1.20
2018-12-03T21:57:30.656Z,1.20
2018-12-03T21:59:58.249Z,1.43
2018-12-03T22:02:25.759Z,1.20
2018-12-03T22:04:53.872Z,1.60
2018-12-03T22:07:21.603Z,1.50
2018-12-03T22:09:49.211Z,1.40
2018-12-03T22:12:16.877Z,1.30
2018-12-03T22:14:44.744Z,1.70
2018-12-03T22:17:13.282Z,1.20
2018-12-03T22:19:40.869Z,1.37
2018-12-03T22:22:08.813Z,1.30
2018-12-03T22:24:36.507Z,1.20
2018-12-03T22:27:04.036Z,1.40
2018-12-03T22:29:31.709Z,1.20
2018-12-03T22:31:59.290Z,1.00
2018-12-03T22:34:27.230Z,1.10
2018-12-03T22:36:54.846Z,1.40
2018-12-03T22:39:22.329Z,1.40
2018-12-03T22:41:49.959Z,1.60
2018-12-03T22:44:17.776Z,1.27
2018-12-03T22:46:45.339Z,1.50
2018-12-03T22:49:12.952Z,1.20
2018-12-03T22:51:40.559Z,1.40
2018-12-03T22:54:09.009Z,1.30
2018-12-03T22:56:36.650Z,1.80
2018-12-03T22:59:04.966Z,1.20
2018-12-03T23:01:32.637Z,1.30
2018-12-03T23:04:00.906Z,1.30
2018-12-03T23:06:28.518Z,1.00
2018-12-03T23:08:56.049Z,1.30
2018-12-03T23:11:23.680Z,1.40
2018-12-03T23:13:51.243Z,1.40
2018-12-03T23:16:19.043Z,1.07
2018-12-03T23:18:46.675Z,1.40
2018-12-03T23:21:14.249Z,1.37
2018-12-03T23:23:42.832Z,1.47
2018-12-03T23:26:10.681Z,1.53
2018-12-03T23:28:38.238Z,1.37
2018-12-03T23:31:05.937Z,1.60
2018-12-03T23:33:33.736Z,1.40
2018-12-03T23:36:01.378Z,1.30
2018-12-03T23:38:28.972Z,1.53
2018-12-03T23:40:56.551Z,1.40
2018-12-03T23:43:24.182Z,1.47
2018-12-03T23:45:52.197Z,1.30
2018-12-03T23:48:20.544Z,1.60
2018-12-03T23:50:49.027Z,1.80
2018-12-03T23:53:17.218Z,1.50
2018-12-03T23:55:45.366Z,1.70
2018-12-03T23:58:13.251Z,1.60
